.
WxDataArchive / Data Records for 2010-06-15
2010-06-14 June 2010 2010-06-16

Data Records for Tuesday, 15 June 2010

Time	Temp	Chill	HIndex	Humid	Dewpt	 Wind 	HiWind	WindDir	Rain 	Barom 
-----	----	-----	------	-----	-----	------	------	-------	-----	----- 
00:00	72.1	72.1	72.1	94	70.3	2	4	90	0.00	29.900 
00:05	72.1	72.1	72.1	94	70.3	2	6	90	0.00	29.900 
00:10	72.1	72.1	72.1	94	70.3	1	4	90	0.00	29.900 
00:15	72.1	72.1	72.1	94	70.3	1	4	90	0.00	29.901 
00:20	72.1	72.1	72.1	94	70.3	1	2	90	0.00	29.901 
00:25	72.1	72.1	72.1	94	70.3	1	2	90	0.00	29.901 
00:30	72.1	72.1	72.1	94	70.3	0	4	90	0.00	29.904 
00:35	72.1	72.1	72.1	94	70.3	1	3	90	0.00	29.904 
00:40	72.1	72.1	72.1	94	70.3	0	3	90	0.00	29.904 
00:45	72.1	72.1	72.1	94	70.3	1	4	90	0.00	29.901 
00:50	72.1	72.1	72.1	94	70.3	1	3	90	0.00	29.901 
00:55	72.1	72.1	72.1	94	70.3	0	2	90	0.00	29.901 
01:00	72.3	72.3	72.3	94	70.5	0	2	90	0.00	29.912 
01:05	72.3	72.3	72.3	94	70.5	1	4	90	0.00	29.912 
01:10	72.1	72.1	72.1	94	70.3	1	4	90	0.00	29.912 
01:15	71.8	71.8	71.8	93	69.7	2	6	90	0.00	29.905 
01:20	71.6	71.6	71.6	93	69.5	2	5	68	0.00	29.905 
01:25	71.6	71.6	71.6	93	69.5	2	4	112	0.00	29.905 
01:30	71.5	71.5	71.5	92	69.0	1	6	90	0.00	29.907 
01:35	71.5	71.5	71.5	92	69.0	2	5	90	0.00	29.907 
01:40	71.6	71.6	71.6	92	69.1	1	4	90	0.00	29.907 
01:45	71.6	71.6	71.6	92	69.1	2	6	90	0.00	29.911 
01:50	71.5	71.5	71.5	92	69.0	1	2	112	0.00	29.911 
01:55	71.5	71.5	71.5	92	69.0	1	4	90	0.00	29.911 
02:00	71.5	71.5	71.5	92	69.0	2	6	112	0.00	29.918 
02:05	71.5	71.5	71.5	92	69.0	2	5	112	0.00	29.918 
02:10	71.5	71.5	71.5	92	69.0	1	3	135	0.00	29.918 
02:15	71.5	71.5	71.5	92	69.0	2	5	112	0.00	29.917 
02:20	71.5	71.5	71.5	92	69.0	2	9	90	0.00	29.917 
02:25	71.3	71.3	71.3	92	68.8	1	3	112	0.00	29.917 
02:30	71.1	71.1	71.1	92	68.7	1	3	112	0.00	29.916 
02:35	70.9	70.9	70.9	92	68.5	2	7	90	0.00	29.916 
02:40	70.8	70.8	70.8	92	68.4	1	4	90	0.00	29.916 
02:45	70.8	70.8	70.8	92	68.4	1	4	112	0.00	29.916 
02:50	70.6	70.6	70.6	92	68.2	1	4	112	0.00	29.916 
02:55	70.4	70.4	70.4	92	68.0	2	5	112	0.00	29.916 
03:00	70.4	70.4	70.4	92	68.0	2	4	90	0.00	29.914 
03:05	70.3	70.3	70.3	92	67.9	2	5	112	0.00	29.914 
03:10	70.1	70.1	70.1	92	67.7	3	7	90	0.00	29.914 
03:15	69.9	69.9	69.9	92	67.5	3	6	90	0.00	29.919 
03:20	69.9	69.9	69.9	92	67.5	3	7	90	0.00	29.919 
03:25	69.8	69.8	69.8	92	67.4	3	6	90	0.00	29.919 
03:30	69.8	69.8	69.8	92	67.4	2	5	90	0.00	29.912 
03:35	69.6	69.6	69.6	92	67.2	2	3	90	0.00	29.912 
03:40	69.6	69.6	69.6	92	67.2	2	4	90	0.00	29.912 
03:45	69.6	69.6	69.6	92	67.2	1	3	90	0.00	29.916 
03:50	69.6	69.6	69.6	92	67.2	1	5	112	0.00	29.916 
03:55	69.6	69.6	69.6	92	67.2	1	6	90	0.00	29.916 
04:00	69.4	69.4	69.4	92	67.0	1	4	90	0.00	29.914 
04:05	69.4	69.4	69.4	92	67.0	1	3	90	0.00	29.914 
04:10	69.4	69.4	69.4	92	67.0	2	5	112	0.00	29.914 
04:15	69.3	69.3	69.3	91	66.6	2	7	90	0.00	29.914 
04:20	69.1	69.1	69.1	91	66.4	1	4	68	0.00	29.914 
04:25	69.1	69.1	69.1	91	66.4	1	4	90	0.00	29.914 
04:30	69.1	69.1	69.1	90	66.0	1	4	90	0.00	29.920 
04:35	69.1	69.1	69.1	90	66.0	2	4	90	0.00	29.920 
04:40	69.1	69.1	69.1	90	66.0	3	5	112	0.00	29.920 
04:45	69.1	69.1	69.1	90	66.0	1	4	112	0.00	29.928 
04:50	69.1	69.1	69.1	90	66.0	1	5	112	0.00	29.928 
04:55	69.1	69.1	69.1	90	66.0	1	3	112	0.00	29.928 
05:00	69.1	69.1	69.1	90	66.0	1	4	68	0.00	29.926 
05:05	69.1	69.1	69.1	90	66.0	1	3	68	0.00	29.926 
05:10	69.1	69.1	69.1	90	66.0	1	3	68	0.00	29.926 
05:15	69.1	69.1	69.1	90	66.0	1	5	90	0.00	29.929 
05:20	69.1	69.1	69.1	90	66.0	1	3	90	0.00	29.929 
05:25	69.1	69.1	69.1	90	66.0	1	3	112	0.00	29.929 
05:30	69.1	69.1	69.1	90	66.0	1	4	90	0.00	29.936 
05:35	69.1	69.1	69.1	91	66.4	0	2	90	0.00	29.936 
05:40	69.1	69.1	69.1	91	66.4	1	5	90	0.00	29.936 
05:45	69.1	69.1	69.1	91	66.4	0	3	90	0.00	29.933 
05:50	69.1	69.1	69.1	91	66.4	1	3	90	0.00	29.933 
05:55	68.9	68.9	68.9	91	66.2	1	4	90	0.00	29.933 
06:00	68.9	68.9	68.9	91	66.2	0	2	90	0.00	29.931 
06:05	68.9	68.9	68.9	91	66.2	1	4	90	0.00	29.931 
06:10	68.9	68.9	68.9	91	66.2	1	3	90	0.00	29.931 
06:15	68.9	68.9	68.9	91	66.2	1	4	112	0.00	29.938 
06:20	68.9	68.9	68.9	91	66.2	1	3	112	0.00	29.938 
06:25	68.9	68.9	68.9	91	66.2	1	2	112	0.00	29.938 
06:30	68.9	68.9	68.9	91	66.2	0	4	112	0.00	29.947 
06:35	68.9	68.9	68.9	91	66.2	1	3	112	0.00	29.947 
06:40	68.9	68.9	68.9	91	66.2	0	2	112	0.00	29.947 
06:45	68.9	68.9	68.9	91	66.2	0	3	112	0.00	29.947 
06:50	68.9	68.9	68.9	91	66.2	1	3	112	0.00	29.947 
06:55	68.9	68.9	68.9	91	66.2	1	4	112	0.00	29.947 
07:00	68.9	68.9	68.9	91	66.2	2	5	90	0.00	29.955 
07:05	68.9	68.9	68.9	90	65.8	1	4	112	0.00	29.955 
07:10	68.9	68.9	68.9	91	66.2	1	3	112	0.00	29.955 
07:15	69.1	69.1	69.1	91	66.4	1	2	112	0.00	29.960 
07:20	68.9	68.9	68.9	90	65.8	3	6	112	0.00	29.960 
07:25	68.9	68.9	68.9	90	65.8	2	5	90	0.00	29.960 
07:30	68.9	68.9	68.9	91	66.2	1	3	90	0.00	29.966 
07:35	68.9	68.9	68.9	90	65.8	1	3	90	0.00	29.966 
07:40	68.8	68.8	68.8	90	65.7	1	3	90	0.00	29.966 
07:45	68.8	68.8	68.8	90	65.7	1	2	90	0.00	29.962 
07:50	68.6	68.6	68.6	90	65.5	2	6	90	0.00	29.962 
07:55	68.6	68.6	68.6	90	65.5	2	5	90	0.00	29.962 
08:00	68.6	68.6	68.6	90	65.5	0	2	90	0.00	29.963 
08:05	68.8	68.8	68.8	90	65.7	0	3	90	0.00	29.963 
08:10	68.8	68.8	68.8	90	65.7	0	3	90	0.00	29.963 
08:15	68.8	68.8	68.8	90	65.7	0	2	90	0.00	29.969 
08:20	68.8	68.8	68.8	90	65.7	0	3	90	0.00	29.969 
08:25	68.8	68.8	68.8	90	65.7	1	3	90	0.00	29.969 
08:30	68.8	68.8	68.8	90	65.7	1	3	112	0.00	29.970 
08:35	68.8	68.8	68.8	89	65.4	1	4	112	0.00	29.970 
08:40	68.8	68.8	68.8	89	65.4	1	3	112	0.00	29.970 
08:45	68.9	68.9	68.9	89	65.5	1	3	112	0.00	29.970 
08:50	69.1	69.1	69.1	90	66.0	1	5	112	0.00	29.970 
08:55	69.1	69.1	69.1	89	65.7	2	4	112	0.00	29.970 
09:00	69.3	69.3	69.3	90	66.2	1	3	135	0.00	29.977 
09:05	69.6	69.6	69.6	90	66.5	0	1	135	0.00	29.977 
09:10	69.8	69.8	69.8	90	66.7	0	0	---	0.00	29.977 
09:15	69.9	69.9	69.9	89	66.5	0	1	135	0.00	29.984 
09:20	70.1	70.1	70.1	89	66.7	0	1	135	0.00	29.984 
09:25	70.3	70.3	70.3	89	66.9	1	3	135	0.00	29.984 
09:30	70.6	70.6	70.6	89	67.2	0	2	135	0.00	29.982 
09:35	70.8	70.8	70.8	88	67.1	1	3	135	0.00	29.982 
09:40	70.8	70.8	70.8	88	67.1	1	4	68	0.00	29.982 
09:45	70.8	70.8	70.8	87	66.7	2	4	68	0.00	29.985 
09:50	70.9	70.9	70.9	88	67.2	0	3	68	0.00	29.985 
09:55	71.3	71.3	71.3	88	67.6	1	4	68	0.00	29.985 
10:00	71.3	71.3	71.3	88	67.6	1	4	90	0.00	29.981 
10:05	71.5	71.5	71.5	88	67.7	1	4	90	0.00	29.981 
10:10	71.6	71.6	71.6	87	67.5	1	3	112	0.00	29.981 
10:15	71.8	71.8	71.8	87	67.7	1	4	112	0.00	29.978 
10:20	72.0	72.0	72.0	87	67.9	2	4	112	0.00	29.978 
10:25	72.1	72.1	72.1	87	68.0	2	5	68	0.00	29.978 
10:30	72.3	72.3	72.3	86	67.9	1	4	90	0.00	29.972 
10:35	72.5	72.5	72.5	86	68.1	2	4	90	0.00	29.972 
10:40	72.3	72.3	72.3	86	67.9	2	7	90	0.00	29.972 
10:45	72.3	72.3	72.3	87	68.2	2	4	90	0.00	29.977 
10:50	72.3	72.3	72.3	86	67.9	2	4	90	0.00	29.977 
10:55	72.3	72.3	72.3	86	67.9	2	5	90	0.00	29.977 
11:00	72.5	72.5	72.5	87	68.4	1	3	90	0.00	29.976 
11:05	72.7	72.7	72.7	86	68.3	0	3	90	0.00	29.976 
11:10	72.7	72.7	72.7	86	68.3	1	4	90	0.00	29.976 
11:15	72.7	72.7	72.7	86	68.3	1	4	90	0.00	29.981 
11:20	72.8	72.8	72.8	86	68.4	2	5	90	0.00	29.981 
11:25	72.8	72.8	72.8	86	68.4	2	6	90	0.00	29.981 
11:30	72.8	72.8	72.8	85	68.0	1	3	90	0.00	29.981 
11:35	73.0	73.0	73.0	85	68.2	1	4	90	0.00	29.981 
11:40	73.0	73.0	73.0	86	68.6	1	3	90	0.00	29.981 
11:45	73.3	73.3	73.3	85	68.5	1	3	90	0.00	29.981 
11:50	73.3	73.3	73.3	85	68.5	2	5	90	0.00	29.981 
11:55	73.3	73.3	73.3	85	68.5	1	4	90	0.00	29.981 
12:00	73.5	73.5	73.5	85	68.7	1	3	90	0.00	29.984 
12:05	73.5	73.5	73.5	84	68.4	1	3	90	0.00	29.984 
12:10	73.7	73.7	73.7	85	68.9	0	2	90	0.00	29.984 
12:15	73.7	73.7	73.7	85	68.9	0	2	90	0.00	29.985 
12:20	73.9	73.9	73.9	84	68.7	1	3	90	0.00	29.985 
12:25	74.2	74.2	74.2	84	69.0	1	3	90	0.00	29.985 
12:30	74.2	74.2	74.2	84	69.0	1	4	90	0.00	29.982 
12:35	74.6	74.6	74.6	84	69.4	1	3	90	0.00	29.982 
12:40	74.4	74.4	74.4	83	68.9	2	5	90	0.00	29.982 
12:45	74.4	74.4	74.4	84	69.2	1	5	112	0.00	29.986 
12:50	74.4	74.4	74.4	84	69.2	0	1	112	0.00	29.986 
12:55	74.4	74.4	74.4	83	68.9	1	3	112	0.00	29.986 
13:00	74.6	74.6	74.6	83	69.1	1	4	112	0.00	29.994 
13:05	74.6	74.6	74.6	84	69.4	1	3	90	0.00	29.994 
13:10	74.6	74.6	74.6	83	69.1	1	2	90	0.00	29.994 
13:15	74.6	74.6	74.6	82	68.7	1	3	90	0.00	29.996 
13:20	74.7	74.7	74.7	83	69.2	0	1	90	0.00	29.996 
13:25	74.9	74.9	74.9	83	69.4	0	2	90	0.00	29.996 
13:30	75.1	75.1	75.3	83	69.6	0	2	90	0.00	29.992 
13:35	75.1	75.1	75.5	82	69.2	0	2	90	0.00	29.992 
13:40	75.3	75.3	75.8	82	69.4	0	2	90	0.00	29.992 
13:45	75.3	75.3	75.6	83	69.8	0	1	90	0.00	29.994 
13:50	75.6	75.6	76.2	82	69.7	0	2	90	0.00	29.994 
13:55	76.0	76.0	76.9	81	69.7	1	3	90	0.00	29.994 
14:00	76.3	76.3	77.4	81	70.0	1	3	90	0.00	29.982 
14:05	76.5	76.5	77.7	81	70.2	1	4	90	0.00	29.982 
14:10	77.2	77.2	78.9	80	70.5	2	3	90	0.00	29.982 
14:15	77.7	77.7	79.8	81	71.4	1	4	90	0.00	29.973 
14:20	78.3	78.3	80.8	78	70.9	2	6	90	0.00	29.973 
14:25	78.5	78.5	81.1	77	70.7	2	5	90	0.00	29.973 
14:30	78.6	78.6	81.2	77	70.8	1	3	112	0.00	29.972 
14:35	79.0	79.0	82.0	77	71.2	1	4	112	0.00	29.972 
14:40	79.2	79.2	82.3	77	71.3	2	5	90	0.00	29.972 
14:45	79.2	79.2	82.1	75	70.6	1	3	90	0.00	29.970 
14:50	79.2	79.2	82.2	76	71.0	1	3	135	0.00	29.970 
14:55	79.2	79.2	82.2	76	71.0	1	5	90	0.00	29.970 
15:00	79.2	79.2	82.3	77	71.3	1	6	90	0.00	29.963 
15:05	79.4	79.4	82.7	77	71.5	2	5	90	0.00	29.963 
15:10	79.8	79.8	83.3	76	71.5	1	4	90	0.00	29.963 
15:15	80.1	80.1	83.8	75	71.4	2	4	112	0.00	29.968 
15:20	79.9	79.9	83.3	74	70.8	2	5	112	0.00	29.968 
15:25	80.5	80.5	84.4	74	71.4	1	3	112	0.00	29.968 
15:30	81.1	81.1	85.5	74	72.0	1	3	112	0.00	29.974 
15:35	81.2	81.2	84.8	69	70.0	1	4	90	0.00	29.974 
15:40	81.1	81.1	85.0	71	70.8	1	4	90	0.00	29.974 
15:45	81.1	81.1	85.3	73	71.6	1	3	90	0.00	29.961 
15:50	81.2	81.2	85.5	73	71.7	1	4	112	0.00	29.961 
15:55	81.4	81.4	86.1	74	72.3	1	3	135	0.00	29.961 
16:00	81.4	81.4	85.7	72	71.5	1	4	90	0.00	29.957 
16:05	81.2	81.2	85.5	73	71.7	1	3	90	0.00	29.957 
16:10	80.9	80.9	84.8	72	71.0	1	3	90	0.00	29.957 
16:15	81.1	81.1	85.5	74	72.0	1	5	90	0.00	29.952 
16:20	80.9	80.9	84.6	71	70.6	2	6	90	0.00	29.952 
16:25	80.5	80.5	84.2	73	71.0	2	4	90	0.00	29.952 
16:30	80.3	80.3	83.9	73	70.8	1	3	90	0.00	29.944 
16:35	80.3	80.3	84.0	74	71.2	2	5	90	0.00	29.944 
16:40	80.1	80.1	83.6	74	71.0	2	6	90	0.00	29.944 
16:45	80.1	80.1	83.6	74	71.0	1	4	90	0.00	29.930 
16:50	80.1	80.1	83.6	74	71.0	2	6	90	0.00	29.930 
16:55	80.3	80.3	83.9	73	70.8	2	4	112	0.00	29.930 
17:00	80.7	80.7	84.7	74	71.6	2	4	112	0.00	29.897 
17:05	81.1	81.1	85.0	71	70.8	2	7	158	0.00	29.897 
17:10	81.1	81.1	85.2	72	71.2	2	6	90	0.00	29.897 
17:15	81.2	81.2	85.5	73	71.7	2	5	90	0.00	29.883 
17:20	81.4	81.4	85.7	72	71.5	2	6	112	0.00	29.883 
17:25	81.2	81.2	85.3	72	71.3	2	6	90	0.00	29.883 
17:30	80.7	80.7	84.6	73	71.2	3	7	90	0.00	29.888 
17:35	80.5	80.5	84.4	74	71.4	3	5	90	0.00	29.888 
17:40	80.9	80.9	85.0	73	71.4	2	5	135	0.00	29.888 
17:45	80.9	80.9	85.0	73	71.4	2	5	68	0.00	29.887 
17:50	80.7	80.7	84.6	73	71.2	2	5	90	0.00	29.887 
17:55	80.7	80.7	84.6	73	71.2	2	4	68	0.00	29.887 
18:00	80.5	80.5	84.4	74	71.4	2	5	68	0.00	29.891 
18:05	80.7	80.7	84.7	74	71.6	1	3	68	0.00	29.891 
18:10	80.7	80.7	84.7	74	71.6	1	4	90	0.00	29.891 
18:15	80.7	80.7	84.6	73	71.2	1	3	112	0.00	29.887 
18:20	80.7	80.7	84.6	73	71.2	1	6	112	0.00	29.887 
18:25	80.7	80.7	84.6	73	71.2	1	4	135	0.00	29.887 
18:30	80.7	80.7	84.9	75	72.0	1	4	45	0.00	29.874 
18:35	80.7	80.7	84.7	74	71.6	2	7	68	0.00	29.874 
18:40	80.9	80.9	85.1	74	71.8	2	5	68	0.00	29.874 
18:45	80.9	80.9	85.0	73	71.4	2	5	135	0.00	29.869 
18:50	81.1	81.1	85.3	73	71.6	2	3	90	0.00	29.869 
18:55	81.1	81.1	85.5	74	72.0	0	3	135	0.00	29.869 
19:00	81.1	81.1	85.5	74	72.0	1	4	90	0.00	29.864 
19:05	81.1	81.1	85.5	74	72.0	1	4	180	0.00	29.864 
19:10	81.1	81.1	85.3	73	71.6	1	3	90	0.00	29.864 
19:15	81.2	81.2	85.5	73	71.7	1	4	112	0.00	29.862 
19:20	81.1	81.1	85.3	73	71.6	1	5	90	0.00	29.862 
19:25	80.9	80.9	85.1	74	71.8	0	2	90	0.00	29.862 
19:30	80.9	80.9	85.1	74	71.8	0	2	135	0.00	29.865 
19:35	80.9	80.9	85.1	74	71.8	0	2	135	0.00	29.865 
19:40	80.9	80.9	85.1	74	71.8	1	3	135	0.00	29.865 
19:45	80.9	80.9	85.1	74	71.8	1	3	90	0.00	29.868 
19:50	80.7	80.7	84.7	74	71.6	1	3	90	0.00	29.868 
19:55	80.7	80.7	84.6	73	71.2	1	3	90	0.00	29.868 
20:00	80.7	80.7	84.6	73	71.2	0	1	90	0.00	29.879 
20:05	80.7	80.7	84.6	73	71.2	0	3	90	0.00	29.879 
20:10	80.5	80.5	84.2	73	71.0	0	3	112	0.00	29.879 
20:15	80.5	80.5	84.2	73	71.0	0	2	112	0.00	29.882 
20:20	80.3	80.3	83.9	73	70.8	0	3	112	0.00	29.882 
20:25	80.3	80.3	83.9	73	70.8	1	2	112	0.00	29.882 
20:30	80.1	80.1	83.5	73	70.6	0	2	135	0.00	29.880 
20:35	79.9	79.9	83.1	73	70.4	0	1	90	0.00	29.880 
20:40	79.9	79.9	83.1	73	70.4	0	2	90	0.00	29.880 
20:45	79.8	79.8	83.1	74	70.8	0	1	112	0.00	29.871 
20:50	79.6	79.6	82.7	74	70.6	0	1	112	0.00	29.871 
20:55	79.4	79.4	82.5	75	70.8	0	1	112	0.00	29.871 
21:00	79.2	79.2	82.1	75	70.6	0	3	112	0.00	29.869 
21:05	79.0	79.0	81.8	75	70.4	0	1	135	0.00	29.869 
21:10	78.8	78.8	81.5	76	70.6	0	2	135	0.00	29.869 
21:15	78.6	78.6	81.2	76	70.4	0	2	135	0.00	29.862 
21:20	78.5	78.5	81.1	77	70.7	0	2	135	0.00	29.862 
21:25	78.3	78.3	80.7	77	70.5	0	2	135	0.00	29.862 
21:30	78.3	78.3	80.7	77	70.5	0	2	135	0.00	29.858 
21:35	78.1	78.1	80.4	78	70.7	0	2	135	0.00	29.858 
21:40	77.9	77.9	80.1	78	70.5	0	2	135	0.00	29.858 
21:45	77.7	77.7	79.8	79	70.7	1	2	135	0.00	29.852 
21:50	77.7	77.7	79.8	79	70.7	1	2	135	0.00	29.852 
21:55	77.6	77.6	79.6	80	70.9	0	2	68	0.00	29.852 
22:00	77.6	77.6	79.6	80	70.9	1	3	68	0.00	29.846 
22:05	77.6	77.6	79.6	80	70.9	1	3	68	0.00	29.846 
22:10	77.6	77.6	79.6	81	71.3	1	4	90	0.00	29.846 
22:15	77.4	77.4	79.2	82	71.5	1	4	112	0.00	29.834 
22:20	77.2	77.2	78.8	83	71.6	2	9	112	0.00	29.834 
22:25	76.8	76.8	78.2	81	70.5	3	10	90	0.01	29.834 
22:30	76.1	76.1	77.4	77	68.3	3	11	90	0.00	29.835 
22:35	75.4	75.4	76.3	78	68.0	3	6	90	0.00	29.835 
22:40	74.9	74.9	74.9	80	68.3	2	6	112	0.01	29.835 
22:45	74.4	74.4	74.4	81	68.2	3	6	90	0.00	29.839 
22:50	73.9	73.9	73.9	81	67.7	2	6	112	0.00	29.839 
22:55	73.5	73.5	73.5	82	67.7	1	4	90	0.00	29.839 
23:00	73.2	73.2	73.2	83	67.7	1	4	90	0.00	29.856 
23:05	72.8	72.8	72.8	84	67.7	2	7	45	0.00	29.856 
23:10	72.5	72.5	72.5	84	67.4	1	4	135	0.00	29.856 
23:15	72.0	72.0	72.0	84	66.9	2	9	90	0.00	29.854 
23:20	71.8	71.8	71.8	85	67.0	0	3	112	0.00	29.854 
23:25	71.6	71.6	71.6	85	66.8	1	3	0	0.00	29.854 
23:30	71.3	71.3	71.3	85	66.5	0	3	45	0.00	29.855 
23:35	71.3	71.3	71.3	86	66.9	0	2	248	0.00	29.855 
23:40	71.1	71.1	71.1	86	66.7	0	3	248	0.00	29.855 
23:45	70.9	70.9	70.9	86	66.5	0	3	248	0.00	29.859 
23:50	70.9	70.9	70.9	86	66.5	0	3	0	0.00	29.859 
23:55	70.8	70.8	70.8	86	66.4	0	2	0	0.00	29.859 

CoCoRaHS
IN-AL-39
A2 Web Hosting
Creative Commons License
GoDaddy
search engine by freefind advanced

loaded 2018-11-17 05:40:33 • last modified 2010-11-18 10:43:29
Privacy PolicyDisclaimer
• wx.awcolley.com is powered by PmWiki v.2002016 •
• all content (unless otherwise noted) © 2018 A W Colley